createdAt,value
2019-03-05T00:01:59.282Z,7.31
2019-03-05T00:04:28.008Z,7.39
2019-03-05T00:06:57.343Z,7.39
2019-03-05T00:09:25.965Z,7.39
2019-03-05T00:11:54.963Z,7.40
2019-03-05T00:14:23.854Z,7.40
2019-03-05T00:16:52.480Z,7.38
2019-03-05T00:19:21.806Z,7.38
2019-03-05T00:21:51.025Z,7.36
2019-03-05T00:25:12.259Z,7.40
2019-03-05T00:27:47.822Z,7.31
2019-03-05T00:30:47.813Z,7.33
2019-03-05T00:33:58.250Z,7.38
2019-03-05T00:36:35.062Z,7.38
2019-03-05T00:39:42.411Z,7.32
2019-03-05T00:42:48.217Z,7.32
2019-03-05T00:46:01.920Z,7.40
2019-03-05T00:48:38.905Z,7.40
2019-03-05T00:51:24.898Z,7.42
2019-03-05T00:54:38.395Z,7.41
2019-03-05T00:57:13.565Z,7.41
2019-03-05T01:00:10.004Z,7.39
2019-03-05T01:03:01.497Z,7.27
2019-03-05T01:05:41.041Z,7.32
2019-03-05T01:08:10.577Z,7.23
2019-03-05T01:10:39.872Z,7.23
2019-03-05T01:13:08.884Z,7.24
2019-03-05T01:15:37.861Z,7.24
2019-03-05T01:18:07.606Z,7.23
2019-03-05T01:20:36.565Z,7.30
2019-03-05T01:23:05.194Z,7.22
2019-03-05T01:25:33.977Z,7.22
2019-03-05T01:28:02.697Z,7.25
2019-03-05T01:30:40.853Z,7.25
2019-03-05T01:33:13.043Z,7.22
2019-03-05T01:35:50.291Z,7.33
2019-03-05T01:38:19.181Z,7.33
2019-03-05T01:40:52.571Z,7.26
2019-03-05T01:43:21.471Z,7.30
2019-03-05T01:45:50.091Z,7.18
2019-03-05T01:48:19.049Z,7.25
2019-03-05T01:50:48.349Z,7.19
2019-03-05T01:53:17.241Z,7.24
2019-03-05T01:55:45.989Z,7.14
2019-03-05T01:58:14.933Z,7.19
2019-03-05T02:00:43.638Z,7.19
2019-03-05T02:03:12.703Z,7.23
2019-03-05T02:05:41.624Z,7.23
2019-03-05T02:08:10.319Z,7.16
2019-03-05T02:10:38.998Z,7.13
2019-03-05T02:13:07.956Z,7.13
2019-03-05T02:15:37.262Z,7.05
2019-03-05T02:18:06.262Z,7.05
2019-03-05T02:20:34.955Z,7.09
2019-03-05T02:23:13.572Z,7.06
2019-03-05T02:26:06.376Z,7.14
2019-03-05T02:28:56.601Z,7.05
2019-03-05T02:32:28.281Z,7.05
2019-03-05T02:35:05.676Z,7.09
2019-03-05T02:38:18.886Z,7.03
2019-03-05T02:40:57.300Z,7.08
2019-03-05T02:43:51.077Z,7.08
2019-03-05T02:46:41.266Z,6.98
2019-03-05T02:49:32.914Z,6.98
2019-03-05T02:52:29.732Z,6.94
2019-03-05T02:55:33.241Z,7.09
2019-03-05T02:58:00.640Z,7.13
2019-03-05T03:01:01.309Z,7.13
2019-03-05T03:03:34.855Z,7.02
2019-03-05T03:06:08.884Z,6.99
2019-03-05T03:08:37.533Z,6.99
2019-03-05T03:11:06.262Z,7.05
2019-03-05T03:13:35.223Z,7.05
2019-03-05T03:16:04.203Z,6.96
2019-03-05T03:18:32.818Z,7.01
2019-03-05T03:21:01.767Z,7.05
2019-03-05T03:23:30.423Z,7.05
2019-03-05T03:25:59.461Z,7.09
2019-03-05T03:28:28.185Z,7.09
2019-03-05T03:30:57.142Z,7.05
2019-03-05T03:33:26.309Z,7.03
2019-03-05T03:35:54.948Z,7.12
2019-03-05T03:38:24.228Z,7.18
2019-03-05T03:40:53.239Z,7.18
2019-03-05T03:43:22.189Z,7.16
2019-03-05T03:45:51.145Z,7.15
2019-03-05T03:48:19.776Z,7.04
2019-03-05T03:50:48.786Z,7.14
2019-03-05T03:53:17.691Z,7.16
2019-03-05T03:55:46.875Z,7.16
2019-03-05T03:58:15.926Z,7.13
2019-03-05T04:00:44.640Z,7.16
2019-03-05T04:03:13.308Z,7.14
2019-03-05T04:05:42.077Z,7.14
2019-03-05T04:08:10.737Z,7.12
2019-03-05T04:10:39.424Z,7.12
2019-03-05T04:13:08.290Z,7.14
2019-03-05T04:15:36.965Z,7.08
2019-03-05T04:18:05.733Z,7.08
2019-03-05T04:20:36.999Z,7.03
2019-03-05T04:23:05.825Z,7.09
2019-03-05T04:25:34.888Z,7.08
2019-03-05T04:28:03.551Z,7.08
2019-03-05T04:30:32.581Z,6.97
2019-03-05T04:33:01.476Z,7.03
2019-03-05T04:35:30.364Z,7.03
2019-03-05T04:37:59.661Z,7.02
2019-03-05T04:40:28.573Z,7.02
2019-03-05T04:42:57.957Z,6.99
2019-03-05T04:45:37.195Z,6.96
2019-03-05T04:48:05.839Z,7.04
2019-03-05T04:50:56.695Z,6.97
2019-03-05T04:53:25.678Z,6.97
2019-03-05T04:55:54.380Z,6.94
2019-03-05T04:58:23.362Z,7.08
2019-03-05T05:00:52.061Z,7.08
2019-03-05T05:03:21.035Z,7.07
2019-03-05T05:05:49.684Z,7.01
2019-03-05T05:08:18.719Z,6.88
2019-03-05T05:10:47.717Z,6.68
2019-03-05T05:13:16.608Z,6.68
2019-03-05T05:15:45.919Z,6.54
2019-03-05T05:18:14.798Z,6.54
2019-03-05T05:20:43.789Z,6.60
2019-03-05T05:23:12.680Z,6.54
2019-03-05T05:25:41.672Z,6.53
2019-03-05T05:28:10.971Z,6.47
2019-03-05T05:30:40.707Z,6.52
2019-03-05T05:33:10.088Z,6.48
2019-03-05T05:35:38.821Z,6.50
2019-03-05T05:38:07.526Z,6.48
2019-03-05T05:40:38.193Z,6.48
2019-03-05T05:43:12.204Z,6.47
2019-03-05T05:45:51.342Z,6.47
2019-03-05T05:48:20.264Z,6.45
2019-03-05T05:50:49.637Z,6.44
2019-03-05T05:53:18.851Z,6.44
2019-03-05T05:55:47.913Z,6.46
2019-03-05T05:58:17.030Z,6.44
2019-03-05T06:00:48.491Z,6.43
2019-03-05T06:03:17.421Z,6.42
2019-03-05T06:05:46.108Z,6.44
2019-03-05T06:08:15.355Z,6.44
2019-03-05T06:10:44.328Z,6.52
2019-03-05T06:13:13.688Z,6.47
2019-03-05T06:15:42.846Z,6.47
2019-03-05T06:18:11.710Z,6.52
2019-03-05T06:20:42.704Z,6.52
2019-03-05T06:23:11.568Z,6.44
2019-03-05T06:25:40.202Z,6.44
2019-03-05T06:28:09.969Z,6.43
2019-03-05T06:30:38.901Z,6.34
2019-03-05T06:33:07.895Z,6.26
2019-03-05T06:35:36.504Z,6.30
2019-03-05T06:38:05.152Z,6.27
2019-03-05T06:40:34.115Z,6.28
2019-03-05T06:43:03.006Z,6.11
2019-03-05T06:45:31.683Z,6.16
2019-03-05T06:48:00.893Z,6.17
2019-03-05T06:50:29.783Z,6.23
2019-03-05T06:52:58.497Z,6.35
2019-03-05T06:55:27.770Z,6.35
2019-03-05T06:57:56.471Z,6.28
2019-03-05T07:00:29.516Z,6.41
2019-03-05T07:02:59.258Z,6.39
2019-03-05T07:06:04.070Z,6.39
2019-03-05T07:08:32.683Z,6.42
2019-03-05T07:11:42.627Z,6.42
2019-03-05T07:14:17.764Z,6.47
2019-03-05T07:17:18.403Z,6.17
2019-03-05T07:20:26.509Z,6.03
2019-03-05T07:23:17.825Z,6.08
2019-03-05T07:25:46.820Z,6.08
2019-03-05T07:28:16.021Z,6.13
2019-03-05T07:30:45.421Z,6.14
2019-03-05T07:33:14.722Z,6.14
2019-03-05T07:35:43.921Z,6.24
2019-03-05T07:38:12.963Z,6.24
2019-03-05T07:40:41.674Z,6.13
2019-03-05T07:43:10.396Z,6.17
2019-03-05T07:45:39.130Z,6.17
2019-03-05T07:48:08.070Z,6.40
2019-03-05T07:50:36.961Z,6.40
2019-03-05T07:53:05.956Z,6.44
2019-03-05T07:55:34.568Z,6.46
2019-03-05T07:58:03.548Z,6.53
2019-03-05T08:00:32.552Z,6.51
2019-03-05T08:03:01.667Z,6.51
2019-03-05T08:05:30.929Z,6.55
2019-03-05T08:08:37.094Z,6.59
2019-03-05T08:11:05.800Z,6.65
2019-03-05T08:13:43.983Z,6.65
2019-03-05T08:16:27.245Z,6.60
2019-03-05T08:18:56.308Z,6.52
2019-03-05T08:21:25.608Z,6.52
2019-03-05T08:23:54.916Z,6.51
2019-03-05T08:26:24.012Z,6.59
2019-03-05T08:28:53.005Z,6.59
2019-03-05T08:31:21.975Z,6.66
2019-03-05T08:33:51.296Z,6.71
2019-03-05T08:36:20.189Z,6.82
2019-03-05T08:38:49.177Z,6.94
2019-03-05T08:41:18.172Z,7.12
2019-03-05T08:43:47.066Z,7.12
2019-03-05T08:46:15.955Z,7.36
2019-03-05T08:48:44.605Z,7.36
2019-03-05T08:51:13.839Z,7.24
2019-03-05T08:53:49.525Z,7.10
2019-03-05T08:56:13.313Z,7.09
2019-03-05T08:58:41.910Z,7.09
2019-03-05T09:01:10.840Z,7.24
2019-03-05T09:03:39.934Z,7.42
2019-03-05T09:06:08.933Z,7.45
2019-03-05T09:08:38.582Z,7.67
2019-03-05T09:11:07.419Z,7.67
2019-03-05T09:13:36.424Z,7.32
2019-03-05T09:16:05.520Z,7.15
2019-03-05T09:18:34.158Z,7.14
2019-03-05T09:21:03.102Z,7.13
2019-03-05T09:23:31.988Z,7.13
2019-03-05T09:26:01.290Z,7.19
2019-03-05T09:28:30.279Z,7.23
2019-03-05T09:31:00.131Z,7.23
2019-03-05T09:33:28.746Z,7.25
2019-03-05T09:35:57.877Z,7.27
2019-03-05T09:38:26.481Z,7.20
2019-03-05T09:40:55.123Z,7.20
2019-03-05T09:43:24.142Z,7.44
2019-03-05T09:45:53.031Z,8.10
2019-03-05T09:48:21.923Z,7.97
2019-03-05T09:50:50.673Z,7.94
2019-03-05T09:53:19.913Z,7.52
2019-03-05T09:55:48.802Z,7.52
2019-03-05T09:58:19.410Z,7.38
2019-03-05T10:00:48.035Z,7.38
2019-03-05T10:03:18.444Z,7.16
2019-03-05T10:05:47.608Z,7.25
2019-03-05T10:08:16.297Z,7.13
2019-03-05T10:10:45.327Z,7.13
2019-03-05T10:13:14.216Z,7.24
2019-03-05T10:15:42.894Z,7.09
2019-03-05T10:18:13.229Z,6.98
2019-03-05T10:20:42.534Z,7.08
2019-03-05T10:23:11.447Z,7.08
2019-03-05T10:25:40.416Z,7.13
2019-03-05T10:28:09.465Z,7.64
2019-03-05T10:30:39.084Z,7.72
2019-03-05T10:33:10.570Z,7.81
2019-03-05T10:35:39.384Z,7.85
2019-03-05T10:38:09.172Z,7.84
2019-03-05T10:40:39.801Z,7.59
2019-03-05T10:43:09.831Z,7.34
2019-03-05T10:45:40.591Z,7.49
2019-03-05T10:48:09.412Z,7.93
2019-03-05T10:50:38.013Z,8.06
2019-03-05T10:53:07.068Z,8.05
2019-03-05T10:55:35.746Z,8.33
2019-03-05T10:58:04.728Z,8.39
2019-03-05T11:00:35.674Z,8.13
2019-03-05T11:03:04.411Z,8.05
2019-03-05T11:05:36.616Z,7.95
2019-03-05T11:08:05.703Z,7.72
2019-03-05T11:10:34.791Z,7.95
2019-03-05T11:13:03.590Z,8.11
2019-03-05T11:15:32.677Z,7.85
2019-03-05T11:18:01.615Z,7.84
2019-03-05T11:20:30.840Z,7.70
2019-03-05T11:23:00.476Z,7.64
2019-03-05T11:25:29.469Z,7.58
2019-03-05T11:27:59.179Z,7.55
2019-03-05T11:30:35.999Z,7.53
2019-03-05T11:32:58.765Z,7.54
2019-03-05T11:35:28.312Z,7.59
2019-03-05T11:37:57.103Z,7.49
2019-03-05T11:40:25.976Z,7.65
2019-03-05T11:42:54.695Z,7.67
2019-03-05T11:45:24.990Z,7.64
2019-03-05T11:47:54.407Z,7.54
2019-03-05T11:50:23.602Z,7.78
2019-03-05T11:52:52.572Z,7.86
2019-03-05T11:55:22.206Z,7.85
2019-03-05T11:57:51.302Z,8.17
2019-03-05T12:00:42.934Z,8.88
2019-03-05T12:03:11.670Z,8.70
2019-03-05T12:05:40.364Z,8.70
2019-03-05T12:08:09.715Z,9.43
2019-03-05T12:10:38.597Z,9.44
2019-03-05T12:13:07.271Z,9.07
2019-03-05T12:15:36.059Z,9.70
2019-03-05T12:18:04.761Z,9.73
2019-03-05T12:20:33.358Z,9.64
2019-03-05T12:23:06.748Z,9.87
2019-03-05T12:25:36.171Z,9.33
2019-03-05T12:28:10.358Z,9.55
2019-03-05T12:30:34.745Z,9.90
2019-03-05T12:33:03.369Z,10.16
2019-03-05T12:35:32.321Z,10.23
2019-03-05T12:38:01.622Z,9.93
2019-03-05T12:40:30.628Z,9.81
2019-03-05T12:42:59.232Z,9.78
2019-03-05T12:45:28.294Z,10.18
2019-03-05T12:47:56.917Z,10.56
2019-03-05T12:50:25.872Z,10.51
2019-03-05T12:52:54.970Z,10.56
2019-03-05T12:55:23.965Z,9.99
2019-03-05T12:57:52.939Z,9.76
2019-03-05T13:00:21.715Z,9.99
2019-03-05T13:02:50.946Z,10.54
2019-03-05T13:05:19.714Z,10.47
2019-03-05T13:07:52.516Z,10.64
2019-03-05T13:10:20.556Z,10.14
2019-03-05T13:12:49.584Z,10.02
2019-03-05T13:15:23.609Z,9.42
2019-03-05T13:17:52.862Z,9.38
2019-03-05T13:20:22.631Z,9.07
2019-03-05T13:22:52.434Z,9.07
2019-03-05T13:25:24.198Z,8.99
2019-03-05T13:27:52.452Z,9.08
2019-03-05T13:30:22.013Z,9.23
2019-03-05T13:32:54.080Z,9.23
2019-03-05T13:35:25.391Z,8.92
2019-03-05T13:37:53.757Z,9.24
2019-03-05T13:40:24.603Z,9.43
2019-03-05T13:42:53.690Z,9.24
2019-03-05T13:45:23.805Z,9.19
2019-03-05T13:47:59.759Z,9.63
2019-03-05T13:50:58.826Z,9.50
2019-03-05T13:54:00.992Z,9.48
2019-03-05T13:57:15.321Z,9.80
2019-03-05T13:59:50.540Z,10.30
2019-03-05T14:02:30.656Z,10.25
2019-03-05T14:05:19.237Z,10.20
2019-03-05T14:08:14.253Z,9.64
2019-03-05T14:10:43.457Z,10.18
2019-03-05T14:13:12.760Z,9.92
2019-03-05T14:15:43.074Z,10.23
2019-03-05T14:18:12.141Z,10.55
2019-03-05T14:20:41.160Z,10.31
2019-03-05T14:23:10.168Z,10.15
2019-03-05T14:25:39.376Z,10.45
2019-03-05T14:28:08.021Z,10.49
2019-03-05T14:30:37.654Z,9.98
2019-03-05T14:33:06.653Z,9.78
2019-03-05T14:35:35.650Z,9.76
2019-03-05T14:38:04.746Z,10.15
2019-03-05T14:40:33.470Z,10.39
2019-03-05T14:43:02.654Z,9.98
2019-03-05T14:45:33.677Z,10.50
2019-03-05T14:48:04.344Z,10.41
2019-03-05T14:50:34.114Z,10.50
2019-03-05T14:53:03.104Z,10.29
2019-03-05T14:55:32.521Z,10.56
2019-03-05T14:58:01.410Z,9.95
2019-03-05T15:00:30.385Z,10.12
2019-03-05T15:02:59.024Z,10.22
2019-03-05T15:05:28.072Z,10.28
2019-03-05T15:07:57.059Z,10.11
2019-03-05T15:10:26.074Z,10.06
2019-03-05T15:12:55.097Z,10.01
2019-03-05T15:15:26.950Z,9.86
2019-03-05T15:17:55.901Z,9.78
2019-03-05T15:20:24.942Z,9.77
2019-03-05T15:22:53.658Z,9.19
2019-03-05T15:25:22.975Z,9.27
2019-03-05T15:27:51.972Z,10.00
2019-03-05T15:30:22.037Z,9.79
2019-03-05T15:32:51.299Z,9.88
2019-03-05T15:35:20.251Z,9.66
2019-03-05T15:37:49.268Z,9.51
2019-03-05T15:40:18.629Z,9.44
2019-03-05T15:42:47.342Z,9.44
2019-03-05T15:45:17.551Z,9.31
2019-03-05T15:47:46.481Z,9.31
2019-03-05T15:50:17.244Z,9.18
2019-03-05T15:52:46.243Z,9.10
2019-03-05T15:55:15.204Z,9.35
2019-03-05T15:57:44.198Z,9.37
2019-03-05T16:00:18.575Z,9.08
2019-03-05T16:02:47.508Z,9.09
2019-03-05T16:05:20.837Z,9.27
2019-03-05T16:07:48.002Z,9.43
2019-03-05T16:10:18.718Z,8.83
2019-03-05T16:12:47.814Z,8.83
2019-03-05T16:15:18.797Z,8.91
2019-03-05T16:17:47.543Z,8.43
2019-03-05T16:20:16.682Z,8.61
2019-03-05T16:22:45.378Z,8.27
2019-03-05T16:25:14.990Z,8.14
2019-03-05T16:27:43.786Z,8.09
2019-03-05T16:30:34.292Z,7.94
2019-03-05T16:33:12.911Z,7.93
2019-03-05T16:35:59.722Z,7.74
2019-03-05T16:38:51.124Z,7.57
2019-03-05T16:41:41.751Z,7.58
2019-03-05T16:44:28.667Z,7.41
2019-03-05T16:47:11.064Z,7.47
2019-03-05T16:49:59.394Z,7.26
2019-03-05T16:52:38.235Z,7.22
2019-03-05T16:55:41.656Z,7.19
2019-03-05T16:58:18.369Z,6.99
2019-03-05T17:00:59.592Z,6.99
2019-03-05T17:03:37.296Z,6.94
2019-03-05T17:06:24.192Z,6.94
2019-03-05T17:09:05.487Z,6.79
2019-03-05T17:11:53.230Z,6.77
2019-03-05T17:14:21.952Z,6.79
2019-03-05T17:16:51.006Z,6.72
2019-03-05T17:19:19.997Z,6.70
2019-03-05T17:21:49.090Z,6.58
2019-03-05T17:24:18.377Z,6.63
2019-03-05T17:26:47.423Z,6.54
2019-03-05T17:29:16.379Z,6.63
2019-03-05T17:31:45.770Z,6.54
2019-03-05T17:34:14.480Z,6.55
2019-03-05T17:36:44.281Z,6.58
2019-03-05T17:39:18.780Z,6.58
2019-03-05T17:41:47.420Z,6.46
2019-03-05T17:44:16.508Z,6.47
2019-03-05T17:46:45.786Z,6.43
2019-03-05T17:49:14.411Z,6.43
2019-03-05T17:51:43.369Z,6.45
2019-03-05T17:54:12.373Z,6.45
2019-03-05T17:56:41.501Z,6.45
2019-03-05T17:59:10.374Z,6.45
2019-03-05T18:01:39.217Z,6.42
2019-03-05T18:04:08.332Z,6.42
2019-03-05T18:06:37.146Z,6.40
2019-03-05T18:09:07.080Z,6.39
2019-03-05T18:11:36.033Z,6.39
2019-03-05T18:14:04.804Z,6.31
2019-03-05T18:16:33.816Z,6.30
2019-03-05T18:19:02.705Z,6.39
2019-03-05T18:21:31.701Z,6.25
2019-03-05T18:24:00.692Z,6.29
2019-03-05T18:26:29.692Z,6.29
2019-03-05T18:28:58.397Z,6.33
2019-03-05T18:31:27.316Z,6.33
2019-03-05T18:33:56.565Z,6.30
2019-03-05T18:36:25.278Z,6.20
2019-03-05T18:38:54.476Z,6.20
2019-03-05T18:41:23.544Z,6.14
2019-03-05T18:43:53.815Z,6.15
2019-03-05T18:46:22.546Z,6.22
2019-03-05T18:48:51.542Z,6.22
2019-03-05T18:51:20.654Z,6.22
2019-03-05T18:53:49.465Z,6.10
2019-03-05T18:56:18.447Z,6.07
2019-03-05T18:58:47.126Z,6.07
2019-03-05T19:01:19.186Z,5.99
2019-03-05T19:03:47.857Z,5.99
2019-03-05T19:06:17.171Z,6.06
2019-03-05T19:08:46.067Z,6.06
2019-03-05T19:11:14.966Z,5.98
2019-03-05T19:13:43.626Z,5.98
2019-03-05T19:16:12.269Z,5.96
2019-03-05T19:18:40.930Z,5.97
2019-03-05T19:21:09.659Z,5.93
2019-03-05T19:23:38.898Z,5.94
2019-03-05T19:26:09.941Z,5.94
2019-03-05T19:28:41.161Z,5.74
2019-03-05T19:31:10.402Z,5.74
2019-03-05T19:33:39.380Z,5.74
2019-03-05T19:36:08.370Z,5.73
2019-03-05T19:38:37.083Z,5.64
2019-03-05T19:41:06.676Z,5.57
2019-03-05T19:43:35.832Z,5.67
2019-03-05T19:46:04.657Z,5.60
2019-03-05T19:48:33.631Z,5.63
2019-03-05T19:51:02.965Z,5.63
2019-03-05T19:53:32.043Z,5.57
2019-03-05T19:56:01.156Z,5.57
2019-03-05T19:58:30.442Z,5.54
2019-03-05T20:01:10.458Z,5.49
2019-03-05T20:03:39.104Z,5.49
2019-03-05T20:06:07.832Z,5.45
2019-03-05T20:08:40.206Z,5.45
2019-03-05T20:11:07.409Z,5.37
2019-03-05T20:13:36.270Z,5.38
2019-03-05T20:16:09.626Z,5.38
2019-03-05T20:18:38.575Z,5.37
2019-03-05T20:21:07.876Z,5.37
2019-03-05T20:23:36.788Z,5.32
2019-03-05T20:26:05.866Z,5.39
2019-03-05T20:28:35.881Z,5.28
2019-03-05T20:31:04.703Z,5.28
2019-03-05T20:33:33.741Z,5.23
2019-03-05T20:36:03.371Z,5.20
2019-03-05T20:38:32.579Z,5.10
2019-03-05T20:41:01.220Z,5.18
2019-03-05T20:43:30.360Z,5.22
2019-03-05T20:46:03.649Z,5.20
2019-03-05T20:48:32.843Z,5.16
2019-03-05T20:51:02.041Z,5.05
2019-03-05T20:53:31.305Z,4.96
2019-03-05T20:56:00.441Z,4.92
2019-03-05T20:58:29.512Z,5.05
2019-03-05T21:00:58.630Z,4.95
2019-03-05T21:03:27.301Z,4.94
2019-03-05T21:05:56.209Z,4.81
2019-03-05T21:08:24.837Z,4.88
2019-03-05T21:10:54.097Z,4.83
2019-03-05T21:13:23.597Z,4.88
2019-03-05T21:15:52.268Z,4.81
2019-03-05T21:18:21.176Z,4.85
2019-03-05T21:20:49.900Z,4.82
2019-03-05T21:23:18.959Z,4.77
2019-03-05T21:25:47.949Z,4.77
2019-03-05T21:28:16.567Z,4.78
2019-03-05T21:30:46.046Z,4.71
2019-03-05T21:33:15.063Z,4.70
2019-03-05T21:35:43.762Z,4.76
2019-03-05T21:38:12.697Z,4.76
2019-03-05T21:40:41.713Z,4.79
2019-03-05T21:43:10.703Z,4.82
2019-03-05T21:45:39.383Z,4.71
2019-03-05T21:48:08.105Z,4.67
2019-03-05T21:50:36.837Z,4.76
2019-03-05T21:53:06.079Z,4.69
2019-03-05T21:55:35.163Z,4.57
2019-03-05T21:58:03.957Z,4.61
2019-03-05T22:00:35.088Z,4.65
2019-03-05T22:03:04.398Z,4.67
2019-03-05T22:05:33.700Z,4.58
2019-03-05T22:08:02.696Z,4.51
2019-03-05T22:10:31.582Z,4.61
2019-03-05T22:13:00.206Z,4.64
2019-03-05T22:15:29.571Z,4.63
2019-03-05T22:17:58.175Z,4.56
2019-03-05T22:20:26.895Z,4.53
2019-03-05T22:22:55.529Z,4.51
2019-03-05T22:25:24.267Z,4.48
2019-03-05T22:27:53.618Z,4.52
2019-03-05T22:30:24.312Z,4.44
2019-03-05T22:32:53.242Z,4.34
2019-03-05T22:35:22.997Z,4.30
2019-03-05T22:37:52.058Z,4.37
2019-03-05T22:40:21.042Z,4.32
2019-03-05T22:42:49.674Z,4.20
2019-03-05T22:45:20.363Z,4.18
2019-03-05T22:47:49.699Z,4.09
2019-03-05T22:50:18.861Z,4.07
2019-03-05T22:52:48.160Z,4.03
2019-03-05T22:55:17.255Z,4.11
2019-03-05T22:57:46.262Z,4.09
2019-03-05T23:00:50.574Z,3.90
2019-03-05T23:03:20.567Z,3.95
2019-03-05T23:05:49.656Z,3.95
2019-03-05T23:08:18.666Z,3.88
2019-03-05T23:10:47.686Z,3.82
2019-03-05T23:13:17.386Z,3.76
2019-03-05T23:15:46.118Z,3.80
2019-03-05T23:18:15.473Z,3.76
2019-03-05T23:20:44.367Z,3.68
2019-03-05T23:23:13.282Z,3.69
2019-03-05T23:25:42.557Z,3.64
2019-03-05T23:28:11.559Z,3.71
2019-03-05T23:30:41.161Z,3.71
2019-03-05T23:33:10.152Z,3.71
2019-03-05T23:35:39.146Z,3.67
2019-03-05T23:38:07.852Z,3.66
2019-03-05T23:40:36.825Z,3.60
2019-03-05T23:43:06.534Z,3.59
2019-03-05T23:45:35.633Z,3.56
2019-03-05T23:48:04.321Z,3.64
2019-03-05T23:50:33.310Z,3.59
2019-03-05T23:53:01.950Z,3.56
2019-03-05T23:55:31.404Z,3.52
2019-03-05T23:58:00.669Z,3.51
